sensor_id;sensor_type;location;lat;lon;timestamp;temperature;humidity
19224;DHT22;9746;47.180;9.776;2022-10-16T05:48:29;13.40;99.90
19224;DHT22;9746;47.180;9.776;2022-10-16T05:50:58;13.40;99.90
19224;DHT22;9746;47.180;9.776;2022-10-16T05:53:27;13.40;99.90
19224;DHT22;9746;47.180;9.776;2022-10-16T05:55:56;13.30;99.90
19224;DHT22;9746;47.180;9.776;2022-10-16T05:58:23;13.30;99.90
19224;DHT22;9746;47.180;9.776;2022-10-16T06:00:55;13.20;99.90
19224;DHT22;9746;47.180;9.776;2022-10-16T06:03:23;13.20;99.90
19224;DHT22;9746;47.180;9.776;2022-10-16T06:05:52;13.20;99.90
19224;DHT22;9746;47.180;9.776;2022-10-16T06:08:21;13.10;99.90
19224;DHT22;9746;47.180;9.776;2022-10-16T06:10:49;13.00;99.90
19224;DHT22;9746;47.180;9.776;2022-10-16T06:13:27;13.00;99.90
19224;DHT22;9746;47.180;9.776;2022-10-16T06:16:00;12.80;99.90
19224;DHT22;9746;47.180;9.776;2022-10-16T06:18:28;12.70;99.90
19224;DHT22;9746;47.180;9.776;2022-10-16T06:20:58;12.70;99.90
19224;DHT22;9746;47.180;9.776;2022-10-16T06:23:25;12.60;99.90
19224;DHT22;9746;47.180;9.776;2022-10-16T06:26:04;12.60;99.90
19224;DHT22;9746;47.180;9.776;2022-10-16T06:28:32;12.60;99.90
19224;DHT22;9746;47.180;9.776;2022-10-16T06:30:59;12.60;99.90
19224;DHT22;9746;47.180;9.776;2022-10-16T06:33:27;12.70;99.90
19224;DHT22;9746;47.180;9.776;2022-10-16T06:36:00;12.70;99.90
19224;DHT22;9746;47.180;9.776;2022-10-16T06:38:29;12.80;99.90
19224;DHT22;9746;47.180;9.776;2022-10-16T06:40:56;12.80;99.90
19224;DHT22;9746;47.180;9.776;2022-10-16T06:43:24;12.90;99.90
19224;DHT22;9746;47.180;9.776;2022-10-16T06:45:52;13.00;99.90
19224;DHT22;9746;47.180;9.776;2022-10-16T06:48:21;13.00;99.90
19224;DHT22;9746;47.180;9.776;2022-10-16T06:50:57;13.10;99.90
19224;DHT22;9746;47.180;9.776;2022-10-16T06:53:27;13.10;99.90
19224;DHT22;9746;47.180;9.776;2022-10-16T06:55:55;13.10;99.90
19224;DHT22;9746;47.180;9.776;2022-10-16T06:58:23;13.20;99.90
19224;DHT22;9746;47.180;9.776;2022-10-16T07:00:55;13.20;99.90
19224;DHT22;9746;47.180;9.776;2022-10-16T07:03:24;13.30;99.90
19224;DHT22;9746;47.180;9.776;2022-10-16T07:05:52;13.40;99.90
19224;DHT22;9746;47.180;9.776;2022-10-16T07:08:19;13.50;99.90
19224;DHT22;9746;47.180;9.776;2022-10-16T07:10:48;13.60;99.90
19224;DHT22;9746;47.180;9.776;2022-10-16T07:13:17;13.70;99.90
19224;DHT22;9746;47.180;9.776;2022-10-16T07:15:45;13.70;99.90
19224;DHT22;9746;47.180;9.776;2022-10-16T07:18:13;13.70;99.90
19224;DHT22;9746;47.180;9.776;2022-10-16T07:20:41;13.80;99.90
19224;DHT22;9746;47.180;9.776;2022-10-16T07:23:08;13.90;99.90
19224;DHT22;9746;47.180;9.776;2022-10-16T07:25:35;14.10;99.90
19224;DHT22;9746;47.180;9.776;2022-10-16T07:28:04;14.20;99.90
19224;DHT22;9746;47.180;9.776;2022-10-16T07:30:35;14.30;99.90
19224;DHT22;9746;47.180;9.776;2022-10-16T07:33:03;14.50;99.90
19224;DHT22;9746;47.180;9.776;2022-10-16T07:35:31;14.50;99.90
19224;DHT22;9746;47.180;9.776;2022-10-16T07:37:58;14.60;99.90
19224;DHT22;9746;47.180;9.776;2022-10-16T07:40:25;14.70;99.90
19224;DHT22;9746;47.180;9.776;2022-10-16T07:42:54;14.70;99.90
19224;DHT22;9746;47.180;9.776;2022-10-16T07:45:22;14.70;99.90
19224;DHT22;9746;47.180;9.776;2022-10-16T07:47:50;14.80;99.90
19224;DHT22;9746;47.180;9.776;2022-10-16T07:50:18;15.00;99.90
19224;DHT22;9746;47.180;9.776;2022-10-16T07:52:45;15.10;99.90
19224;DHT22;9746;47.180;9.776;2022-10-16T07:55:12;15.20;99.90
19224;DHT22;9746;47.180;9.776;2022-10-16T07:57:40;15.30;99.90
19224;DHT22;9746;47.180;9.776;2022-10-16T08:00:09;15.50;99.90
19224;DHT22;9746;47.180;9.776;2022-10-16T08:02:41;15.60;99.90
19224;DHT22;9746;47.180;9.776;2022-10-16T08:05:08;15.80;99.90
19224;DHT22;9746;47.180;9.776;2022-10-16T08:07:36;16.00;99.90
19224;DHT22;9746;47.180;9.776;2022-10-16T08:10:05;16.20;99.90
19224;DHT22;9746;47.180;9.776;2022-10-16T08:12:32;16.60;99.90
19224;DHT22;9746;47.180;9.776;2022-10-16T08:14:59;16.90;99.90
19224;DHT22;9746;47.180;9.776;2022-10-16T08:17:27;17.20;99.90
19224;DHT22;9746;47.180;9.776;2022-10-16T08:19:55;17.40;99.90
19224;DHT22;9746;47.180;9.776;2022-10-16T08:22:23;17.40;99.90
19224;DHT22;9746;47.180;9.776;2022-10-16T08:24:50;17.40;99.90
19224;DHT22;9746;47.180;9.776;2022-10-16T08:27:18;17.40;99.90
19224;DHT22;9746;47.180;9.776;2022-10-16T08:29:48;17.30;99.90
19224;DHT22;9746;47.180;9.776;2022-10-16T08:32:16;17.40;99.90
19224;DHT22;9746;47.180;9.776;2022-10-16T08:34:43;17.50;99.90
19224;DHT22;9746;47.180;9.776;2022-10-16T08:37:12;17.50;99.90
19224;DHT22;9746;47.180;9.776;2022-10-16T08:39:39;17.60;99.90
19224;DHT22;9746;47.180;9.776;2022-10-16T08:42:17;17.80;99.90
19224;DHT22;9746;47.180;9.776;2022-10-16T08:45:09;18.20;99.90
19224;DHT22;9746;47.180;9.776;2022-10-16T08:47:47;18.70;99.90
19224;DHT22;9746;47.180;9.776;2022-10-16T08:50:22;19.40;99.90
19224;DHT22;9746;47.180;9.776;2022-10-16T08:52:52;19.80;99.90
19224;DHT22;9746;47.180;9.776;2022-10-16T08:55:31;20.20;99.90
19224;DHT22;9746;47.180;9.776;2022-10-16T08:58:00;20.60;99.90
19224;DHT22;9746;47.180;9.776;2022-10-16T09:00:28;21.00;99.90
19224;DHT22;9746;47.180;9.776;2022-10-16T09:03:03;21.30;99.90
19224;DHT22;9746;47.180;9.776;2022-10-16T09:05:54;21.60;99.90
19224;DHT22;9746;47.180;9.776;2022-10-16T09:08:34;21.90;99.90
19224;DHT22;9746;47.180;9.776;2022-10-16T09:11:11;22.10;99.90
19224;DHT22;9746;47.180;9.776;2022-10-16T09:13:48;22.20;99.90
19224;DHT22;9746;47.180;9.776;2022-10-16T09:16:21;22.30;99.90
19224;DHT22;9746;47.180;9.776;2022-10-16T09:18:56;22.70;99.90
19224;DHT22;9746;47.180;9.776;2022-10-16T09:21:29;22.90;99.90
19224;DHT22;9746;47.180;9.776;2022-10-16T09:24:00;23.00;99.90
19224;DHT22;9746;47.180;9.776;2022-10-16T09:26:32;23.30;99.90
19224;DHT22;9746;47.180;9.776;2022-10-16T09:29:00;23.50;99.90
19224;DHT22;9746;47.180;9.776;2022-10-16T09:31:27;23.50;99.90
19224;DHT22;9746;47.180;9.776;2022-10-16T09:33:58;23.70;99.90
19224;DHT22;9746;47.180;9.776;2022-10-16T09:36:28;24.00;99.90
19224;DHT22;9746;47.180;9.776;2022-10-16T09:39:06;24.20;99.90
19224;DHT22;9746;47.180;9.776;2022-10-16T09:41:36;24.50;99.90
19224;DHT22;9746;47.180;9.776;2022-10-16T09:44:06;24.60;99.90
19224;DHT22;9746;47.180;9.776;2022-10-16T09:46:41;24.90;99.90
19224;DHT22;9746;47.180;9.776;2022-10-16T09:49:21;25.20;99.90
19224;DHT22;9746;47.180;9.776;2022-10-16T09:51:49;25.50;99.90
19224;DHT22;9746;47.180;9.776;2022-10-16T09:54:19;25.80;99.90
19224;DHT22;9746;47.180;9.776;2022-10-16T09:56:48;26.00;99.90
19224;DHT22;9746;47.180;9.776;2022-10-16T09:59:19;26.30;99.90
19224;DHT22;9746;47.180;9.776;2022-10-16T10:01:49;26.60;99.90
19224;DHT22;9746;47.180;9.776;2022-10-16T10:04:17;26.60;99.90
19224;DHT22;9746;47.180;9.776;2022-10-16T10:06:47;26.50;99.90
19224;DHT22;9746;47.180;9.776;2022-10-16T10:19:42;26.60;99.90
19224;DHT22;9746;47.180;9.776;2022-10-16T10:22:17;27.10;99.90
19224;DHT22;9746;47.180;9.776;2022-10-16T10:24:46;27.60;99.90
19224;DHT22;9746;47.180;9.776;2022-10-16T10:27:24;28.20;99.90
19224;DHT22;9746;47.180;9.776;2022-10-16T10:30:01;28.70;99.90
19224;DHT22;9746;47.180;9.776;2022-10-16T10:32:36;29.10;99.90
19224;DHT22;9746;47.180;9.776;2022-10-16T10:35:18;29.50;99.90
19224;DHT22;9746;47.180;9.776;2022-10-16T10:38:09;29.90;99.90
19224;DHT22;9746;47.180;9.776;2022-10-16T10:40:50;30.20;99.90
19224;DHT22;9746;47.180;9.776;2022-10-16T10:43:32;30.50;99.90
19224;DHT22;9746;47.180;9.776;2022-10-16T10:46:09;30.80;99.90
19224;DHT22;9746;47.180;9.776;2022-10-16T10:48:51;31.10;99.90
19224;DHT22;9746;47.180;9.776;2022-10-16T10:51:28;31.30;99.90
19224;DHT22;9746;47.180;9.776;2022-10-16T10:54:05;31.60;99.90
19224;DHT22;9746;47.180;9.776;2022-10-16T10:56:46;31.90;99.90
19224;DHT22;9746;47.180;9.776;2022-10-16T10:59:38;32.00;99.90
19224;DHT22;9746;47.180;9.776;2022-10-16T11:02:17;32.00;99.90
19224;DHT22;9746;47.180;9.776;2022-10-16T11:07:49;32.30;99.90
19224;DHT22;9746;47.180;9.776;2022-10-16T11:10:21;32.40;99.90
19224;DHT22;9746;47.180;9.776;2022-10-16T11:12:54;32.20;99.90
19224;DHT22;9746;47.180;9.776;2022-10-16T11:15:27;32.10;99.90
19224;DHT22;9746;47.180;9.776;2022-10-16T11:18:00;32.20;99.90
19224;DHT22;9746;47.180;9.776;2022-10-16T11:20:32;32.60;99.90
19224;DHT22;9746;47.180;9.776;2022-10-16T11:23:08;33.00;99.90
19224;DHT22;9746;47.180;9.776;2022-10-16T11:25:39;33.50;99.90
19224;DHT22;9746;47.180;9.776;2022-10-16T11:28:11;33.90;99.90
19224;DHT22;9746;47.180;9.776;2022-10-16T11:30:46;34.30;99.90
19224;DHT22;9746;47.180;9.776;2022-10-16T11:33:29;34.60;99.90
19224;DHT22;9746;47.180;9.776;2022-10-16T11:36:07;34.90;98.20
19224;DHT22;9746;47.180;9.776;2022-10-16T11:38:42;34.90;98.00
19224;DHT22;9746;47.180;9.776;2022-10-16T11:41:17;35.20;98.10
19224;DHT22;9746;47.180;9.776;2022-10-16T11:43:51;35.30;97.40
19224;DHT22;9746;47.180;9.776;2022-10-16T11:46:22;35.30;97.60
19224;DHT22;9746;47.180;9.776;2022-10-16T11:48:57;35.50;97.90
19224;DHT22;9746;47.180;9.776;2022-10-16T11:51:35;35.70;96.90
19224;DHT22;9746;47.180;9.776;2022-10-16T11:54:24;36.00;96.70
19224;DHT22;9746;47.180;9.776;2022-10-16T11:56:56;36.20;95.40
19224;DHT22;9746;47.180;9.776;2022-10-16T11:59:30;36.40;95.30
19224;DHT22;9746;47.180;9.776;2022-10-16T12:02:28;36.90;93.50
19224;DHT22;9746;47.180;9.776;2022-10-16T12:05:06;37.10;91.30
19224;DHT22;9746;47.180;9.776;2022-10-16T12:07:37;37.00;90.60
19224;DHT22;9746;47.180;9.776;2022-10-16T12:10:21;36.40;90.30
19224;DHT22;9746;47.180;9.776;2022-10-16T12:12:49;35.20;90.00
19224;DHT22;9746;47.180;9.776;2022-10-16T12:15:22;34.70;91.10
19224;DHT22;9746;47.180;9.776;2022-10-16T12:17:50;35.20;91.60
19224;DHT22;9746;47.180;9.776;2022-10-16T12:20:22;35.30;91.20
19224;DHT22;9746;47.180;9.776;2022-10-16T12:22:54;35.80;91.30
19224;DHT22;9746;47.180;9.776;2022-10-16T12:25:26;36.30;90.70
19224;DHT22;9746;47.180;9.776;2022-10-16T12:27:57;36.60;91.00
19224;DHT22;9746;47.180;9.776;2022-10-16T12:30:28;36.90;90.40
19224;DHT22;9746;47.180;9.776;2022-10-16T12:32:57;37.10;90.90
19224;DHT22;9746;47.180;9.776;2022-10-16T12:35:27;37.20;89.90
19224;DHT22;9746;47.180;9.776;2022-10-16T12:38:06;37.10;90.60
19224;DHT22;9746;47.180;9.776;2022-10-16T12:40:37;37.00;90.10
19224;DHT22;9746;47.180;9.776;2022-10-16T12:43:24;36.90;90.40
19224;DHT22;9746;47.180;9.776;2022-10-16T12:46:00;37.10;91.00
19224;DHT22;9746;47.180;9.776;2022-10-16T12:48:28;37.40;90.70
19224;DHT22;9746;47.180;9.776;2022-10-16T12:51:08;37.60;89.30
19224;DHT22;9746;47.180;9.776;2022-10-16T12:53:36;37.10;88.50
19224;DHT22;9746;47.180;9.776;2022-10-16T12:56:12;37.30;88.70
19224;DHT22;9746;47.180;9.776;2022-10-16T12:59:05;37.80;88.60
19224;DHT22;9746;47.180;9.776;2022-10-16T13:01:43;38.50;88.10
19224;DHT22;9746;47.180;9.776;2022-10-16T13:04:35;38.70;84.90
19224;DHT22;9746;47.180;9.776;2022-10-16T13:07:24;38.40;85.20
19224;DHT22;9746;47.180;9.776;2022-10-16T13:10:06;37.80;86.40
19224;DHT22;9746;47.180;9.776;2022-10-16T13:12:57;38.30;84.60
19224;DHT22;9746;47.180;9.776;2022-10-16T13:15:45;38.00;84.00
19224;DHT22;9746;47.180;9.776;2022-10-16T13:18:22;37.10;84.10
19224;DHT22;9746;47.180;9.776;2022-10-16T13:21:03;36.80;85.30
19224;DHT22;9746;47.180;9.776;2022-10-16T13:23:41;36.70;86.30
19224;DHT22;9746;47.180;9.776;2022-10-16T13:26:17;37.00;85.00
19224;DHT22;9746;47.180;9.776;2022-10-16T13:28:50;37.80;85.90
19224;DHT22;9746;47.180;9.776;2022-10-16T13:31:20;38.80;84.70
19224;DHT22;9746;47.180;9.776;2022-10-16T13:33:51;39.70;81.80
19224;DHT22;9746;47.180;9.776;2022-10-16T13:36:22;40.20;79.40
19224;DHT22;9746;47.180;9.776;2022-10-16T13:39:03;39.90;78.30
19224;DHT22;9746;47.180;9.776;2022-10-16T13:41:34;39.50;78.60
19224;DHT22;9746;47.180;9.776;2022-10-16T13:44:03;39.10;77.90
19224;DHT22;9746;47.180;9.776;2022-10-16T13:46:31;39.00;78.20
19224;DHT22;9746;47.180;9.776;2022-10-16T13:49:02;38.90;78.20
19224;DHT22;9746;47.180;9.776;2022-10-16T13:51:30;38.50;78.40
19224;DHT22;9746;47.180;9.776;2022-10-16T13:53:58;38.50;79.30
19224;DHT22;9746;47.180;9.776;2022-10-16T13:56:28;38.20;79.10
19224;DHT22;9746;47.180;9.776;2022-10-16T13:58:59;37.90;80.70
19224;DHT22;9746;47.180;9.776;2022-10-16T14:01:29;37.70;79.30
19224;DHT22;9746;47.180;9.776;2022-10-16T14:04:02;37.90;80.80
19224;DHT22;9746;47.180;9.776;2022-10-16T14:06:32;38.20;79.60
19224;DHT22;9746;47.180;9.776;2022-10-16T14:09:04;38.50;78.70
19224;DHT22;9746;47.180;9.776;2022-10-16T14:11:34;38.80;78.10
19224;DHT22;9746;47.180;9.776;2022-10-16T14:14:05;39.30;77.00
19224;DHT22;9746;47.180;9.776;2022-10-16T14:16:35;39.30;76.60
19224;DHT22;9746;47.180;9.776;2022-10-16T14:19:04;39.50;76.90
19224;DHT22;9746;47.180;9.776;2022-10-16T14:21:33;40.20;74.80
19224;DHT22;9746;47.180;9.776;2022-10-16T14:24:11;40.70;74.20
19224;DHT22;9746;47.180;9.776;2022-10-16T14:26:42;40.50;73.70
19224;DHT22;9746;47.180;9.776;2022-10-16T14:29:14;40.30;73.90
19224;DHT22;9746;47.180;9.776;2022-10-16T14:31:54;39.90;74.60
19224;DHT22;9746;47.180;9.776;2022-10-16T14:34:28;39.90;74.90
19224;DHT22;9746;47.180;9.776;2022-10-16T14:36:58;40.30;74.00
19224;DHT22;9746;47.180;9.776;2022-10-16T14:39:27;40.30;72.10
19224;DHT22;9746;47.180;9.776;2022-10-16T14:41:56;39.30;72.60
19224;DHT22;9746;47.180;9.776;2022-10-16T14:44:29;38.00;74.40
19224;DHT22;9746;47.180;9.776;2022-10-16T14:47:08;36.80;76.10
19224;DHT22;9746;47.180;9.776;2022-10-16T14:49:36;35.00;78.70
19224;DHT22;9746;47.180;9.776;2022-10-16T14:52:09;33.70;81.80
19224;DHT22;9746;47.180;9.776;2022-10-16T14:54:37;32.60;84.10
19224;DHT22;9746;47.180;9.776;2022-10-16T14:57:05;31.30;88.10
19224;DHT22;9746;47.180;9.776;2022-10-16T14:59:43;30.40;90.10
19224;DHT22;9746;47.180;9.776;2022-10-16T15:02:18;29.30;91.30
19224;DHT22;9746;47.180;9.776;2022-10-16T15:04:48;28.40;92.50
19224;DHT22;9746;47.180;9.776;2022-10-16T15:07:16;27.80;93.50
19224;DHT22;9746;47.180;9.776;2022-10-16T15:09:44;27.20;94.20
19224;DHT22;9746;47.180;9.776;2022-10-16T15:12:11;26.90;95.10
19224;DHT22;9746;47.180;9.776;2022-10-16T15:14:39;26.50;95.20
19224;DHT22;9746;47.180;9.776;2022-10-16T15:17:08;25.80;96.50
19224;DHT22;9746;47.180;9.776;2022-10-16T15:19:37;25.20;97.30
19224;DHT22;9746;47.180;9.776;2022-10-16T15:22:05;24.90;97.80
19224;DHT22;9746;47.180;9.776;2022-10-16T15:24:32;24.40;98.70
19224;DHT22;9746;47.180;9.776;2022-10-16T15:27:00;24.20;99.20
19224;DHT22;9746;47.180;9.776;2022-10-16T15:29:27;24.00;99.90
19224;DHT22;9746;47.180;9.776;2022-10-16T15:31:54;23.60;99.90
19224;DHT22;9746;47.180;9.776;2022-10-16T15:34:22;23.40;99.90
19224;DHT22;9746;47.180;9.776;2022-10-16T15:36:51;23.10;99.90
19224;DHT22;9746;47.180;9.776;2022-10-16T15:39:19;22.80;99.90
19224;DHT22;9746;47.180;9.776;2022-10-16T15:41:47;22.40;99.90
19224;DHT22;9746;47.180;9.776;2022-10-16T15:44:16;22.20;99.90
19224;DHT22;9746;47.180;9.776;2022-10-16T15:46:44;21.90;99.90
19224;DHT22;9746;47.180;9.776;2022-10-16T15:49:11;21.60;99.90
19224;DHT22;9746;47.180;9.776;2022-10-16T15:51:41;21.40;99.90
19224;DHT22;9746;47.180;9.776;2022-10-16T15:54:10;21.40;99.90
19224;DHT22;9746;47.180;9.776;2022-10-16T15:56:37;21.30;99.90
19224;DHT22;9746;47.180;9.776;2022-10-16T15:59:05;21.40;99.90
19224;DHT22;9746;47.180;9.776;2022-10-16T16:01:33;21.40;99.90
19224;DHT22;9746;47.180;9.776;2022-10-16T16:04:01;21.50;99.90
19224;DHT22;9746;47.180;9.776;2022-10-16T16:06:30;21.50;99.90
19224;DHT22;9746;47.180;9.776;2022-10-16T16:08:58;21.40;99.90
19224;DHT22;9746;47.180;9.776;2022-10-16T16:11:28;21.30;99.90
19224;DHT22;9746;47.180;9.776;2022-10-16T16:13:57;21.20;99.90
19224;DHT22;9746;47.180;9.776;2022-10-16T16:16:25;21.10;99.90
19224;DHT22;9746;47.180;9.776;2022-10-16T16:18:53;21.00;99.90
19224;DHT22;9746;47.180;9.776;2022-10-16T16:21:21;21.00;99.90
19224;DHT22;9746;47.180;9.776;2022-10-16T16:23:48;20.90;99.90
19224;DHT22;9746;47.180;9.776;2022-10-16T16:26:23;20.80;99.90
19224;DHT22;9746;47.180;9.776;2022-10-16T16:28:54;20.60;99.90
19224;DHT22;9746;47.180;9.776;2022-10-16T16:31:24;20.60;99.90
19224;DHT22;9746;47.180;9.776;2022-10-16T16:33:52;20.50;99.90
19224;DHT22;9746;47.180;9.776;2022-10-16T16:36:20;20.30;99.90
19224;DHT22;9746;47.180;9.776;2022-10-16T16:38:47;20.20;99.90
19224;DHT22;9746;47.180;9.776;2022-10-16T16:41:19;20.10;99.90
19224;DHT22;9746;47.180;9.776;2022-10-16T16:43:49;20.00;99.90
19224;DHT22;9746;47.180;9.776;2022-10-16T16:46:20;19.90;99.90
19224;DHT22;9746;47.180;9.776;2022-10-16T16:48:48;19.80;99.90
19224;DHT22;9746;47.180;9.776;2022-10-16T16:51:19;19.70;99.90
19224;DHT22;9746;47.180;9.776;2022-10-16T16:53:48;19.60;99.90
19224;DHT22;9746;47.180;9.776;2022-10-16T16:56:17;19.50;99.90
19224;DHT22;9746;47.180;9.776;2022-10-16T16:58:45;19.50;99.90
19224;DHT22;9746;47.180;9.776;2022-10-16T17:01:15;19.40;99.90
19224;DHT22;9746;47.180;9.776;2022-10-16T17:03:49;19.30;99.90
19224;DHT22;9746;47.180;9.776;2022-10-16T17:06:18;19.20;99.90
19224;DHT22;9746;47.180;9.776;2022-10-16T17:08:46;19.20;99.90
19224;DHT22;9746;47.180;9.776;2022-10-16T17:11:15;19.10;99.90
19224;DHT22;9746;47.180;9.776;2022-10-16T17:13:43;19.10;99.90
19224;DHT22;9746;47.180;9.776;2022-10-16T17:16:10;19.10;99.90
19224;DHT22;9746;47.180;9.776;2022-10-16T17:18:38;19.00;99.90
19224;DHT22;9746;47.180;9.776;2022-10-16T17:21:08;19.00;99.90
19224;DHT22;9746;47.180;9.776;2022-10-16T17:23:36;18.90;99.90
19224;DHT22;9746;47.180;9.776;2022-10-16T17:26:05;18.80;99.90
19224;DHT22;9746;47.180;9.776;2022-10-16T17:28:32;18.70;99.90
19224;DHT22;9746;47.180;9.776;2022-10-16T17:31:08;18.60;99.90
19224;DHT22;9746;47.180;9.776;2022-10-16T17:33:36;18.60;99.90
19224;DHT22;9746;47.180;9.776;2022-10-16T17:36:04;18.50;99.90
19224;DHT22;9746;47.180;9.776;2022-10-16T17:38:33;18.40;99.90
19224;DHT22;9746;47.180;9.776;2022-10-16T17:41:10;18.40;99.90
19224;DHT22;9746;47.180;9.776;2022-10-16T17:43:38;18.30;99.90
19224;DHT22;9746;47.180;9.776;2022-10-16T17:46:09;18.30;99.90
19224;DHT22;9746;47.180;9.776;2022-10-16T17:48:38;18.10;99.90
19224;DHT22;9746;47.180;9.776;2022-10-16T17:51:06;18.00;99.90
19224;DHT22;9746;47.180;9.776;2022-10-16T17:53:37;17.90;99.90
19224;DHT22;9746;47.180;9.776;2022-10-16T17:56:05;17.90;99.90
19224;DHT22;9746;47.180;9.776;2022-10-16T17:58:33;17.80;99.90
19224;DHT22;9746;47.180;9.776;2022-10-16T18:01:01;17.80;99.90
19224;DHT22;9746;47.180;9.776;2022-10-16T18:03:28;17.80;99.90
19224;DHT22;9746;47.180;9.776;2022-10-16T18:05:56;17.70;99.90
19224;DHT22;9746;47.180;9.776;2022-10-16T18:08:23;17.70;99.90
19224;DHT22;9746;47.180;9.776;2022-10-16T18:10:52;17.70;99.90
19224;DHT22;9746;47.180;9.776;2022-10-16T18:13:19;17.70;99.90
19224;DHT22;9746;47.180;9.776;2022-10-16T18:15:47;17.60;99.90
19224;DHT22;9746;47.180;9.776;2022-10-16T18:18:14;17.60;99.90
19224;DHT22;9746;47.180;9.776;2022-10-16T18:20:41;17.50;99.90
19224;DHT22;9746;47.180;9.776;2022-10-16T18:23:09;17.50;99.90
19224;DHT22;9746;47.180;9.776;2022-10-16T18:25:36;17.50;99.90
19224;DHT22;9746;47.180;9.776;2022-10-16T18:28:09;17.50;99.90
19224;DHT22;9746;47.180;9.776;2022-10-16T18:30:39;17.50;99.90
19224;DHT22;9746;47.180;9.776;2022-10-16T18:33:08;17.40;99.90
19224;DHT22;9746;47.180;9.776;2022-10-16T18:35:37;17.40;99.90
19224;DHT22;9746;47.180;9.776;2022-10-16T18:38:06;17.40;99.90
19224;DHT22;9746;47.180;9.776;2022-10-16T18:40:35;17.40;99.90
19224;DHT22;9746;47.180;9.776;2022-10-16T18:43:02;17.30;99.90
19224;DHT22;9746;47.180;9.776;2022-10-16T18:45:31;17.30;99.90
19224;DHT22;9746;47.180;9.776;2022-10-16T18:47:59;17.30;99.90
19224;DHT22;9746;47.180;9.776;2022-10-16T18:50:26;17.20;99.90
19224;DHT22;9746;47.180;9.776;2022-10-16T18:52:55;17.10;99.90
19224;DHT22;9746;47.180;9.776;2022-10-16T18:55:22;17.00;99.90
19224;DHT22;9746;47.180;9.776;2022-10-16T18:57:52;16.90;99.90
19224;DHT22;9746;47.180;9.776;2022-10-16T19:00:23;16.70;99.90
19224;DHT22;9746;47.180;9.776;2022-10-16T19:02:54;16.60;99.90
19224;DHT22;9746;47.180;9.776;2022-10-16T19:05:24;16.50;99.90
19224;DHT22;9746;47.180;9.776;2022-10-16T19:07:59;16.40;99.90
19224;DHT22;9746;47.180;9.776;2022-10-16T19:10:35;16.40;99.90
19224;DHT22;9746;47.180;9.776;2022-10-16T19:13:03;16.40;99.90
19224;DHT22;9746;47.180;9.776;2022-10-16T19:15:30;16.40;99.90
19224;DHT22;9746;47.180;9.776;2022-10-16T19:17:59;16.40;99.90
19224;DHT22;9746;47.180;9.776;2022-10-16T19:20:26;16.40;99.90
19224;DHT22;9746;47.180;9.776;2022-10-16T19:22:53;16.50;99.90
19224;DHT22;9746;47.180;9.776;2022-10-16T19:25:24;16.50;99.90
19224;DHT22;9746;47.180;9.776;2022-10-16T19:27:53;16.50;99.90
19224;DHT22;9746;47.180;9.776;2022-10-16T19:30:21;16.50;99.90
19224;DHT22;9746;47.180;9.776;2022-10-16T19:32:54;16.40;99.90
19224;DHT22;9746;47.180;9.776;2022-10-16T19:35:24;16.40;99.90
19224;DHT22;9746;47.180;9.776;2022-10-16T19:37:51;16.40;99.90
19224;DHT22;9746;47.180;9.776;2022-10-16T19:40:19;16.30;99.90
19224;DHT22;9746;47.180;9.776;2022-10-16T19:42:46;16.20;99.90
19224;DHT22;9746;47.180;9.776;2022-10-16T19:45:14;16.20;99.90
19224;DHT22;9746;47.180;9.776;2022-10-16T19:47:41;16.10;99.90
19224;DHT22;9746;47.180;9.776;2022-10-16T19:50:10;16.00;99.90
